createdAt,value
2018-06-11T00:00:46.778Z,15.20
2018-06-11T00:03:22.825Z,12.13
2018-06-11T00:05:59.524Z,13.13
2018-06-11T00:08:37.085Z,14.00
2018-06-11T00:11:13.267Z,14.23
2018-06-11T00:13:48.904Z,14.33
2018-06-11T00:16:26.602Z,13.10
2018-06-11T00:19:04.166Z,13.57
2018-06-11T00:21:39.962Z,14.30
2018-06-11T00:24:16.002Z,13.63
2018-06-11T00:26:51.760Z,13.60
2018-06-11T00:29:27.501Z,13.10
2018-06-11T00:32:03.975Z,14.43
2018-06-11T00:34:39.922Z,13.20
2018-06-11T00:37:15.997Z,13.40
2018-06-11T00:39:53.282Z,13.27
2018-06-11T00:42:29.537Z,13.30
2018-06-11T00:45:07.103Z,11.93
2018-06-11T00:47:44.659Z,12.63
2018-06-11T00:50:20.151Z,12.00
2018-06-11T00:52:56.040Z,11.67
2018-06-11T00:56:37.507Z,11.77
2018-06-11T00:59:14.680Z,12.43
2018-06-11T01:01:50.216Z,13.30
2018-06-11T01:04:26.698Z,13.60
2018-06-11T01:07:04.508Z,13.53
2018-06-11T01:09:41.525Z,12.50
2018-06-11T01:12:17.026Z,12.53
2018-06-11T01:14:53.073Z,11.97
2018-06-11T01:17:28.850Z,13.33
2018-06-11T01:20:06.521Z,13.57
2018-06-11T01:22:42.616Z,13.87
2018-06-11T01:25:17.917Z,14.20
2018-06-11T01:27:55.199Z,13.50
2018-06-11T01:30:30.455Z,13.30
2018-06-11T01:33:06.712Z,13.87
2018-06-11T01:35:43.383Z,15.43
2018-06-11T01:38:19.101Z,13.60
2018-06-11T01:40:56.217Z,12.63
2018-06-11T01:43:33.702Z,13.43
2018-06-11T01:46:09.035Z,12.93
2018-06-11T01:48:45.522Z,13.17
2018-06-11T01:53:44.126Z,13.90
2018-06-11T01:56:21.611Z,14.73
2018-06-11T01:58:57.862Z,13.13
2018-06-11T02:01:34.843Z,14.67
2018-06-11T02:04:11.813Z,14.23
2018-06-11T02:06:48.689Z,14.47
2018-06-11T02:09:24.763Z,16.20
2018-06-11T02:11:59.878Z,16.03
2018-06-11T02:14:37.982Z,14.17
2018-06-11T02:17:15.470Z,13.83
2018-06-11T02:19:50.922Z,13.87
2018-06-11T02:22:27.275Z,13.33
2018-06-11T02:25:04.575Z,13.93
2018-06-11T02:27:40.326Z,14.27
2018-06-11T02:30:16.767Z,13.63
2018-06-11T02:32:52.449Z,15.47
2018-06-11T02:35:28.269Z,16.03
2018-06-11T02:38:04.958Z,13.70
2018-06-11T02:40:42.642Z,14.10
2018-06-11T02:43:17.995Z,13.17
2018-06-11T02:45:54.054Z,12.83
2018-06-11T02:48:29.801Z,14.33
2018-06-11T02:51:06.585Z,15.07
2018-06-11T02:53:43.718Z,15.23
2018-06-11T02:56:19.100Z,14.37
2018-06-11T02:58:56.993Z,15.57
2018-06-11T03:01:34.406Z,13.57
2018-06-11T03:04:12.085Z,13.60
2018-06-11T03:06:49.382Z,12.80
2018-06-11T03:09:26.142Z,12.43
2018-06-11T03:12:02.594Z,12.20
2018-06-11T03:14:38.869Z,12.27
2018-06-11T03:17:15.358Z,12.63
2018-06-11T03:19:53.233Z,15.23
2018-06-11T03:22:31.139Z,13.20
2018-06-11T03:25:07.321Z,13.10
2018-06-11T03:27:42.547Z,12.67
2018-06-11T03:30:18.193Z,12.73
2018-06-11T03:32:54.872Z,13.00
2018-06-11T03:35:32.064Z,13.40
2018-06-11T03:38:07.846Z,14.10
2018-06-11T03:40:50.902Z,14.03
2018-06-11T03:43:28.710Z,15.20
2018-06-11T03:46:03.771Z,15.93
2018-06-11T03:48:39.002Z,14.30
2018-06-11T03:51:15.973Z,13.23
2018-06-11T03:53:52.531Z,14.87
2018-06-11T03:56:28.779Z,13.73
2018-06-11T03:59:07.462Z,13.93
2018-06-11T04:01:44.283Z,13.67
2018-06-11T04:04:20.957Z,12.30
2018-06-11T04:06:59.765Z,13.93
2018-06-11T04:09:36.761Z,14.27
2018-06-11T04:12:12.710Z,13.00
2018-06-11T04:14:48.558Z,12.30
2018-06-11T04:17:25.432Z,13.90
2018-06-11T04:20:00.683Z,12.90
2018-06-11T04:22:35.904Z,13.60
2018-06-11T04:25:11.331Z,13.00
2018-06-11T04:27:46.990Z,12.70
2018-06-11T04:30:22.385Z,13.50
2018-06-11T04:32:58.407Z,13.67
2018-06-11T04:35:35.319Z,14.33
2018-06-11T04:38:10.734Z,12.70
2018-06-11T04:40:47.190Z,13.27
2018-06-11T04:43:25.607Z,14.50
2018-06-11T04:46:03.418Z,15.07
2018-06-11T04:48:38.651Z,14.83
2018-06-11T04:51:16.037Z,15.03
2018-06-11T04:53:53.714Z,15.10
2018-06-11T04:56:29.208Z,14.30
2018-06-11T04:59:04.220Z,14.63
2018-06-11T05:01:40.055Z,15.27
2018-06-11T05:04:16.456Z,14.47
2018-06-11T05:06:52.063Z,14.20
2018-06-11T05:09:28.235Z,14.77
2018-06-11T05:12:04.489Z,13.77
2018-06-11T05:14:39.120Z,14.10
2018-06-11T05:17:16.344Z,14.20
2018-06-11T05:19:52.142Z,14.43
2018-06-11T05:22:27.788Z,13.97
2018-06-11T05:25:05.597Z,14.07
2018-06-11T05:27:41.459Z,13.83
2018-06-11T05:30:17.322Z,12.90
2018-06-11T05:32:56.421Z,13.27
2018-06-11T05:35:33.096Z,13.80
2018-06-11T05:38:09.926Z,12.80
2018-06-11T05:40:46.451Z,13.47
2018-06-11T05:43:22.189Z,12.80
2018-06-11T05:45:58.864Z,13.10
2018-06-11T05:48:36.851Z,14.67
2018-06-11T05:51:15.076Z,13.47
2018-06-11T05:53:50.941Z,13.97
2018-06-11T05:56:26.878Z,13.87
2018-06-11T05:59:02.726Z,13.70
2018-06-11T06:01:38.599Z,14.43
2018-06-11T06:04:16.094Z,14.80
2018-06-11T06:06:51.344Z,13.00
2018-06-11T06:09:27.451Z,12.90
2018-06-11T06:12:03.635Z,13.17
2018-06-11T06:14:39.838Z,14.40
2018-06-11T06:17:16.463Z,13.90
2018-06-11T06:19:52.720Z,12.93
2018-06-11T06:22:31.156Z,14.60
2018-06-11T06:25:06.573Z,14.13
2018-06-11T06:27:43.579Z,15.47
2018-06-11T06:30:19.004Z,16.87
2018-06-11T06:32:55.908Z,17.50
2018-06-11T06:35:31.465Z,17.13
2018-06-11T06:38:05.828Z,17.53
2018-06-11T06:40:44.146Z,17.43
2018-06-11T06:43:18.603Z,16.53
2018-06-11T06:45:53.965Z,16.77
2018-06-11T06:48:33.362Z,17.03
2018-06-11T06:51:08.795Z,15.77
2018-06-11T06:53:46.090Z,17.60
2018-06-11T06:56:21.903Z,18.03
2018-06-11T06:58:57.579Z,17.33
2018-06-11T07:01:33.220Z,17.97
2018-06-11T07:04:09.064Z,16.80
2018-06-11T07:06:46.670Z,17.53
2018-06-11T07:09:22.219Z,16.90
2018-06-11T07:11:57.647Z,16.00
2018-06-11T07:14:34.647Z,15.40
2018-06-11T07:17:09.786Z,15.43
2018-06-11T07:19:45.735Z,14.30
2018-06-11T07:22:21.376Z,15.50
2018-06-11T07:24:57.554Z,15.80
2018-06-11T07:27:34.910Z,14.97
2018-06-11T07:30:10.896Z,14.80
2018-06-11T07:32:46.740Z,14.33
2018-06-11T07:35:22.464Z,15.47
2018-06-11T07:37:57.931Z,14.70
2018-06-11T07:40:34.720Z,14.30
2018-06-11T07:43:09.166Z,14.90
2018-06-11T07:45:45.903Z,14.17
2018-06-11T07:48:21.538Z,14.03
2018-06-11T07:50:57.564Z,13.87
2018-06-11T07:53:33.745Z,14.07
2018-06-11T07:56:09.635Z,13.40
2018-06-11T07:58:47.058Z,13.57
2018-06-11T08:01:23.197Z,13.80
2018-06-11T08:03:59.521Z,14.07
2018-06-11T08:06:37.625Z,13.50
2018-06-11T08:09:15.609Z,14.40
2018-06-11T08:11:51.126Z,13.97
2018-06-11T08:14:26.693Z,11.80
2018-06-11T08:17:04.416Z,13.03
2018-06-11T08:19:39.988Z,13.07
2018-06-11T08:22:14.798Z,13.50
2018-06-11T08:24:49.923Z,11.77
2018-06-11T08:27:26.186Z,13.57
2018-06-11T08:30:02.231Z,12.77
2018-06-11T08:32:37.784Z,12.67
2018-06-11T08:35:14.339Z,12.90
2018-06-11T08:37:49.796Z,12.27
2018-06-11T08:40:25.971Z,12.87
2018-06-11T08:43:01.572Z,12.13
2018-06-11T08:45:37.868Z,12.37
2018-06-11T08:48:15.161Z,11.77
2018-06-11T08:50:50.932Z,12.30
2018-06-11T08:53:26.851Z,12.13
2018-06-11T08:56:03.728Z,12.77
2018-06-11T08:58:39.374Z,12.00
2018-06-11T09:01:15.238Z,12.33
2018-06-11T09:03:50.780Z,11.90
2018-06-11T09:06:26.839Z,11.50
2018-06-11T09:09:04.755Z,12.40
2018-06-11T09:11:40.595Z,11.93
2018-06-11T09:14:17.534Z,11.27
2018-06-11T09:16:56.081Z,10.97
2018-06-11T09:19:31.934Z,10.73
2018-06-11T09:22:09.432Z,11.47
2018-06-11T09:24:43.954Z,11.63
2018-06-11T09:27:19.799Z,11.63
2018-06-11T09:29:55.869Z,10.87
2018-06-11T09:32:31.609Z,11.63
2018-06-11T09:35:11.960Z,11.07
2018-06-11T09:37:48.425Z,11.77
2018-06-11T09:40:25.734Z,11.77
2018-06-11T09:43:02.603Z,10.77
2018-06-11T09:45:38.426Z,10.50
2018-06-11T09:48:16.039Z,10.80
2018-06-11T09:50:52.814Z,11.37
2018-06-11T09:53:28.365Z,11.17
2018-06-11T09:56:05.446Z,10.60
2018-06-11T09:58:41.586Z,10.63
2018-06-11T10:01:17.935Z,10.17
2018-06-11T10:03:54.223Z,10.70
2018-06-11T10:06:30.065Z,10.73
2018-06-11T10:09:08.297Z,10.43
2018-06-11T10:11:45.159Z,10.40
2018-06-11T10:14:22.753Z,9.77
2018-06-11T10:16:59.337Z,10.70
2018-06-11T10:19:36.297Z,10.90
2018-06-11T10:22:11.940Z,9.90
2018-06-11T10:27:14.851Z,9.00
2018-06-11T10:29:50.957Z,8.87
2018-06-11T10:32:27.019Z,8.40
2018-06-11T10:35:03.630Z,9.57
2018-06-11T10:37:39.063Z,7.90
2018-06-11T10:40:15.044Z,9.00
2018-06-11T10:42:50.179Z,8.67
2018-06-11T10:45:26.220Z,8.87
2018-06-11T10:48:01.044Z,9.13
2018-06-11T10:50:36.476Z,8.70
2018-06-11T10:53:12.116Z,9.27
2018-06-11T10:55:47.149Z,8.00
2018-06-11T10:58:24.992Z,9.07
2018-06-11T11:00:59.966Z,8.67
2018-06-11T11:03:35.252Z,9.30
2018-06-11T11:06:10.319Z,8.60
2018-06-11T11:08:46.390Z,8.33
2018-06-11T11:11:21.783Z,8.77
2018-06-11T11:13:57.405Z,9.77
2018-06-11T11:16:33.031Z,8.70
2018-06-11T11:19:09.269Z,8.20
2018-06-11T11:21:45.387Z,8.77
2018-06-11T11:24:21.232Z,7.53
2018-06-11T11:26:57.039Z,7.77
2018-06-11T11:29:32.392Z,7.00
2018-06-11T11:32:10.230Z,7.53
2018-06-11T11:34:47.094Z,6.63
2018-06-11T11:37:22.198Z,7.07
2018-06-11T11:39:58.257Z,7.10
2018-06-11T11:42:36.163Z,7.57
2018-06-11T11:45:11.652Z,6.80
2018-06-11T11:47:46.649Z,7.40
2018-06-11T11:50:23.856Z,7.60
2018-06-11T11:52:59.101Z,7.20
2018-06-11T11:55:36.425Z,7.63
2018-06-11T11:58:12.143Z,7.77
2018-06-11T12:00:48.681Z,7.90
2018-06-11T12:03:23.631Z,7.40
2018-06-11T12:05:58.857Z,8.20
2018-06-11T12:08:34.693Z,7.90
2018-06-11T12:11:09.934Z,7.00
2018-06-11T12:13:47.371Z,7.33
2018-06-11T12:16:24.732Z,7.77
2018-06-11T12:19:00.194Z,7.47
2018-06-11T12:21:37.371Z,7.37
2018-06-11T12:24:13.379Z,7.37
2018-06-11T12:26:48.975Z,7.17
2018-06-11T12:29:27.317Z,7.30
2018-06-11T12:32:03.634Z,8.17
2018-06-11T12:34:39.087Z,7.53
2018-06-11T12:37:15.850Z,6.63
2018-06-11T12:39:50.994Z,6.47
2018-06-11T12:42:26.630Z,6.10
2018-06-11T12:45:02.788Z,6.27
2018-06-11T12:47:38.762Z,6.27
2018-06-11T12:50:14.803Z,6.10
2018-06-11T12:52:49.869Z,6.93
2018-06-11T12:55:26.501Z,6.73
2018-06-11T12:58:02.160Z,6.20
2018-06-11T13:00:37.396Z,6.67
2018-06-11T13:03:13.883Z,5.93
2018-06-11T13:05:49.407Z,6.67
2018-06-11T13:08:24.437Z,6.23
2018-06-11T13:10:59.768Z,6.07
2018-06-11T13:13:36.554Z,6.07
2018-06-11T13:16:12.721Z,6.23
2018-06-11T13:18:48.542Z,6.17
2018-06-11T13:21:25.248Z,6.00
2018-06-11T13:23:59.974Z,5.93
2018-06-11T13:26:35.373Z,6.20
2018-06-11T13:29:11.159Z,6.60
2018-06-11T13:31:46.593Z,6.40
2018-06-11T13:34:20.967Z,6.20
2018-06-11T13:36:55.765Z,6.27
2018-06-11T13:39:31.321Z,5.93
2018-06-11T13:42:06.935Z,5.57
2018-06-11T13:44:43.347Z,5.87
2018-06-11T13:47:19.137Z,5.97
2018-06-11T13:49:54.806Z,6.23
2018-06-11T13:52:29.925Z,7.00
2018-06-11T13:55:06.508Z,6.30
2018-06-11T13:57:41.803Z,6.10
2018-06-11T14:00:17.675Z,6.37
2018-06-11T14:02:53.840Z,6.00
2018-06-11T14:05:29.902Z,6.20
2018-06-11T14:08:06.778Z,6.10
2018-06-11T14:10:42.493Z,5.97
2018-06-11T14:13:18.902Z,6.00
2018-06-11T14:15:56.904Z,5.97
2018-06-11T14:18:32.354Z,5.63
2018-06-11T14:21:07.984Z,6.40
2018-06-11T14:23:43.426Z,6.63
2018-06-11T14:26:18.961Z,6.40
2018-06-11T14:28:54.492Z,6.80
2018-06-11T14:31:30.971Z,6.73
2018-06-11T14:34:05.900Z,6.77
2018-06-11T14:36:42.479Z,6.97
2018-06-11T14:39:18.123Z,7.43
2018-06-11T14:41:55.002Z,7.00
2018-06-11T14:44:31.158Z,7.67
2018-06-11T14:47:07.852Z,7.83
2018-06-11T14:49:45.225Z,9.43
2018-06-11T14:52:20.514Z,9.23
2018-06-11T14:54:58.369Z,9.83
2018-06-11T14:57:33.921Z,9.07
2018-06-11T15:00:09.379Z,9.10
2018-06-11T15:02:46.932Z,9.40
2018-06-11T15:05:21.466Z,8.90
2018-06-11T15:07:57.514Z,8.60
2018-06-11T15:10:33.034Z,7.80
2018-06-11T15:13:08.008Z,7.40
2018-06-11T15:15:43.880Z,8.03
2018-06-11T15:18:18.826Z,7.90
2018-06-11T15:20:56.365Z,8.67
2018-06-11T15:23:32.172Z,8.37
2018-06-11T15:26:07.787Z,9.47
2018-06-11T15:28:43.099Z,10.17
2018-06-11T15:31:18.489Z,9.77
2018-06-11T15:33:54.504Z,10.03
2018-06-11T15:36:29.840Z,9.77
2018-06-11T15:39:08.449Z,9.80
2018-06-11T15:41:46.342Z,9.80
2018-06-11T15:44:21.451Z,9.20
2018-06-11T15:46:57.138Z,10.03
2018-06-11T15:49:34.156Z,9.90
2018-06-11T15:52:09.391Z,10.20
2018-06-11T15:54:46.556Z,11.10
2018-06-11T15:57:22.068Z,13.33
2018-06-11T15:59:57.531Z,14.90
2018-06-11T16:02:33.505Z,17.10
2018-06-11T16:05:08.828Z,20.73
2018-06-11T16:07:44.680Z,21.70
2018-06-11T16:10:19.816Z,23.10
2018-06-11T16:12:56.653Z,25.77
2018-06-11T16:15:31.820Z,31.13
2018-06-11T16:18:07.985Z,30.33
2018-06-11T16:20:42.839Z,31.13
2018-06-11T16:23:18.354Z,29.77
2018-06-11T16:25:56.472Z,26.77
2018-06-11T16:28:34.154Z,24.47
2018-06-11T16:31:09.697Z,6.20
2018-06-11T16:33:45.762Z,9.00
2018-06-11T16:36:22.012Z,9.40
2018-06-11T16:38:57.461Z,7.57
2018-06-11T16:41:32.708Z,9.80
2018-06-11T16:44:09.639Z,11.03
2018-06-11T16:46:46.443Z,15.03
2018-06-11T16:49:27.292Z,9.40
2018-06-11T16:52:02.761Z,9.30
2018-06-11T16:54:38.012Z,9.27
2018-06-11T16:57:14.250Z,11.00
2018-06-11T16:59:49.520Z,9.10
2018-06-11T17:02:27.823Z,8.73
2018-06-11T17:05:05.722Z,7.53
2018-06-11T17:07:42.388Z,8.37
2018-06-11T17:10:18.930Z,7.93
2018-06-11T17:12:57.588Z,7.53
2018-06-11T17:15:33.215Z,7.53
2018-06-11T17:18:08.888Z,8.10
2018-06-11T17:20:47.694Z,7.30
2018-06-11T17:23:24.151Z,7.87
2018-06-11T17:26:02.139Z,9.07
2018-06-11T17:28:38.110Z,7.30
2018-06-11T17:31:16.641Z,8.03
2018-06-11T17:33:56.086Z,8.07
2018-06-11T17:36:33.847Z,7.80
2018-06-11T17:39:09.836Z,8.13
2018-06-11T17:41:48.352Z,10.20
2018-06-11T17:44:26.307Z,11.30
2018-06-11T17:47:03.318Z,9.07
2018-06-11T17:49:39.170Z,9.00
2018-06-11T17:52:18.284Z,10.77
2018-06-11T17:54:57.514Z,9.60
2018-06-11T17:57:34.530Z,8.83
2018-06-11T18:00:10.884Z,9.23
2018-06-11T18:02:46.947Z,8.70
2018-06-11T18:05:26.301Z,9.17
2018-06-11T18:08:08.184Z,7.07
2018-06-11T18:10:45.042Z,8.00
2018-06-11T18:13:20.581Z,9.23
2018-06-11T18:15:57.872Z,11.00
2018-06-11T18:18:34.638Z,11.30
2018-06-11T18:21:10.517Z,11.77
2018-06-11T18:23:49.149Z,11.57
2018-06-11T18:26:29.518Z,11.37
2018-06-11T18:29:08.047Z,12.10
2018-06-11T18:31:45.171Z,9.53
2018-06-11T18:34:22.255Z,8.33
2018-06-11T18:36:58.375Z,7.40
2018-06-11T18:39:36.399Z,7.40
2018-06-11T18:42:12.816Z,7.80
2018-06-11T18:44:50.987Z,8.57
2018-06-11T18:47:34.104Z,8.27
2018-06-11T18:50:14.783Z,9.00
2018-06-11T18:52:50.006Z,8.90
2018-06-11T18:55:27.107Z,7.80
2018-06-11T18:58:07.225Z,8.03
2018-06-11T19:00:43.780Z,8.00
2018-06-11T19:03:22.773Z,7.60
2018-06-11T19:05:58.058Z,7.47
2018-06-11T19:08:37.711Z,8.63
2018-06-11T19:11:15.086Z,8.57
2018-06-11T19:15:02.271Z,8.10
2018-06-11T19:17:37.507Z,7.77
2018-06-11T19:20:15.114Z,7.33
2018-06-11T19:22:53.790Z,6.43
2018-06-11T19:25:32.081Z,7.03
2018-06-11T19:28:11.303Z,7.43
2018-06-11T19:30:48.186Z,7.47
2018-06-11T19:33:26.311Z,7.30
2018-06-11T19:36:03.992Z,7.50
2018-06-11T19:38:41.176Z,6.73
2018-06-11T19:41:17.639Z,6.93
2018-06-11T19:43:54.934Z,7.60
2018-06-11T19:46:31.189Z,7.50
2018-06-11T19:49:08.420Z,7.50
2018-06-11T19:51:47.511Z,6.57
2018-06-11T19:54:28.053Z,7.43
2018-06-11T19:57:06.329Z,7.13
2018-06-11T19:59:43.369Z,7.40
2018-06-11T20:02:18.997Z,7.07
2018-06-11T20:04:57.832Z,7.63
2018-06-11T20:07:36.654Z,6.77
2018-06-11T20:10:14.534Z,7.27
2018-06-11T20:12:49.895Z,7.37
2018-06-11T20:15:27.995Z,7.17
2018-06-11T20:18:07.522Z,7.30
2018-06-11T20:20:45.023Z,8.23
2018-06-11T20:23:20.771Z,8.40
2018-06-11T20:25:57.162Z,7.97
2018-06-11T20:28:36.295Z,7.57
2018-06-11T20:31:14.270Z,8.10
2018-06-11T20:33:50.929Z,8.27
2018-06-11T20:36:28.135Z,8.63
2018-06-11T20:39:04.695Z,9.13
2018-06-11T20:41:41.569Z,8.73
2018-06-11T20:44:17.454Z,8.67
2018-06-11T20:46:55.522Z,9.13
2018-06-11T20:49:33.261Z,8.40
2018-06-11T20:52:10.818Z,8.20
2018-06-11T20:54:46.268Z,9.00
2018-06-11T20:57:22.412Z,8.20
2018-06-11T20:59:57.974Z,7.97
2018-06-11T21:02:35.027Z,8.97
2018-06-11T21:05:14.947Z,8.33
2018-06-11T21:07:52.672Z,9.30
2018-06-11T21:10:29.561Z,8.87
2018-06-11T21:13:08.178Z,9.77
2018-06-11T21:15:45.962Z,9.10
2018-06-11T21:18:22.821Z,10.20
2018-06-11T21:20:58.082Z,10.57
2018-06-11T21:23:35.575Z,10.90
2018-06-11T21:26:11.522Z,11.63
2018-06-11T21:28:47.983Z,11.30
2018-06-11T21:31:25.476Z,11.70
2018-06-11T21:34:03.085Z,12.33
2018-06-11T21:36:38.529Z,12.20
2018-06-11T21:39:16.954Z,12.97
2018-06-11T21:41:54.017Z,13.20
2018-06-11T21:44:28.655Z,14.07
2018-06-11T21:47:07.160Z,13.07
2018-06-11T21:49:45.982Z,14.17
2018-06-11T21:52:23.496Z,13.80
2018-06-11T21:54:59.335Z,14.60
2018-06-11T21:57:37.223Z,15.00
2018-06-11T22:00:15.230Z,14.10
2018-06-11T22:02:50.175Z,14.63
2018-06-11T22:05:27.958Z,15.33
2018-06-11T22:08:04.927Z,16.77
2018-06-11T22:10:40.383Z,16.77
2018-06-11T22:13:17.343Z,14.37
2018-06-11T22:15:55.561Z,14.77
2018-06-11T22:18:32.241Z,16.00
2018-06-11T22:21:08.297Z,15.83
2018-06-11T22:23:45.384Z,16.87
2018-06-11T22:26:21.637Z,15.40
2018-06-11T22:28:57.787Z,17.93
2018-06-11T22:31:35.086Z,15.27
2018-06-11T22:34:11.022Z,17.30
2018-06-11T22:36:46.283Z,18.43
2018-06-11T22:39:23.244Z,18.43
2018-06-11T22:41:58.706Z,19.50
2018-06-11T22:44:36.099Z,18.00
2018-06-11T22:47:14.852Z,18.53
2018-06-11T22:49:50.704Z,19.20
2018-06-11T22:52:27.850Z,19.50
2018-06-11T22:55:04.502Z,21.67
2018-06-11T22:57:40.051Z,21.53
2018-06-11T23:00:22.048Z,20.00
2018-06-11T23:02:58.111Z,22.50
2018-06-11T23:05:34.078Z,23.23
2018-06-11T23:08:08.992Z,23.43
2018-06-11T23:10:45.259Z,25.07
2018-06-11T23:13:20.381Z,23.20
2018-06-11T23:15:56.838Z,23.00
2018-06-11T23:18:33.613Z,22.83
2018-06-11T23:21:09.458Z,22.87
2018-06-11T23:23:46.326Z,23.63
2018-06-11T23:26:22.107Z,22.90
2018-06-11T23:28:58.390Z,22.70
2018-06-11T23:31:35.463Z,22.40
2018-06-11T23:34:11.496Z,21.83
2018-06-11T23:36:47.983Z,20.30
2018-06-11T23:39:24.462Z,20.70
2018-06-11T23:42:00.197Z,21.03
2018-06-11T23:44:35.939Z,20.47
2018-06-11T23:47:11.168Z,20.17
2018-06-11T23:49:47.856Z,21.23
2018-06-11T23:52:25.057Z,20.47
2018-06-11T23:55:01.715Z,21.77
2018-06-11T23:57:38.276Z,20.23
